Time;durP1;ratioP1;P1;durP2;ratioP2;P2;SDS_P1;SDS_P2;PMS_P1;PMS_P2;Temp;Humidity;BMP_temperature;BMP_pressure;BME280_temperature;BME280_humidity;BME280_pressure;Samples;Min_cycle;Max_cycle;Signal;HPM_P1;HPM_P2
2024/03/14 00:00:54;;;;;;;132.40;46.72;;;;;;;;;;5010130;28;20112;-57
2024/03/14 00:03:41;;;;;;;143.63;45.55;;;;;;;;;;5015102;28;20046;-60
2024/03/14 00:06:35;;;;;;;131.25;43.40;;;;;;;;;;5013641;28;20568;-59
2024/03/14 00:09:22;;;;;;;146.95;46.33;;;;;;;;;;5013502;28;20045;-59
2024/03/14 00:12:16;;;;;;;140.38;44.05;;;;;;;;;;5012803;28;20111;-54
2024/03/14 00:15:04;;;;;;;132.10;44.40;;;;;;;;;;5011392;28;20050;-61
2024/03/14 00:18:04;;;;;;;115.45;39.45;;;;;;;;;;5007676;28;20057;-61
2024/03/14 00:20:32;;;;;;;115.97;42.92;;;;;;;;;;5014703;28;20624;-60
2024/03/14 00:23:06;;;;;;;135.50;45.08;;;;;;;;;;5016333;28;20103;-60
2024/03/14 00:25:53;;;;;;;119.63;43.22;;;;;;;;;;5019508;28;20061;-60
2024/03/14 00:28:47;;;;;;;121.15;39.30;;;;;;;;;;5016264;28;20058;-62
2024/03/14 00:31:40;;;;;;;109.75;42.25;;;;;;;;;;5011326;28;20129;-61
2024/03/14 00:34:36;;;;;;;95.65;38.00;;;;;;;;;;5013602;28;20112;-61
2024/03/14 00:37:21;;;;;;;100.75;34.92;;;;;;;;;;5018053;28;20041;-61
2024/03/14 00:40:18;;;;;;;100.75;34.38;;;;;;;;;;5013473;28;20058;-57
2024/03/14 00:43:02;;;;;;;115.38;40.67;;;;;;;;;;5014766;28;20072;-61
2024/03/14 00:45:56;;;;;;;106.70;39.60;;;;;;;;;;5014064;28;20111;-62
2024/03/14 00:48:52;;;;;;;111.65;41.85;;;;;;;;;;5013991;28;20108;-62
2024/03/14 00:51:44;;;;;;;106.15;39.67;;;;;;;;;;5014688;28;20506;-61
2024/03/14 00:54:31;;;;;;;103.53;39.55;;;;;;;;;;5015335;28;20100;-61
2024/03/14 00:57:25;;;;;;;107.97;40.70;;;;;;;;;;5016069;28;20119;-62
2024/03/14 01:00:12;;;;;;;104.32;39.90;;;;;;;;;;5010667;28;20054;-62
2024/03/14 01:03:08;;;;;;;107.45;41.08;;;;;;;;;;5013901;28;20426;-61
2024/03/14 01:05:53;;;;;;;111.28;40.50;;;;;;;;;;5011062;28;20061;-62
2024/03/14 01:08:48;;;;;;;112.28;38.70;;;;;;;;;;5009616;28;20069;-61
2024/03/14 01:11:34;;;;;;;121.70;40.90;;;;;;;;;;5015505;28;20056;-65
2024/03/14 01:14:28;;;;;;;149.15;46.33;;;;;;;;;;5016838;28;20057;-64
2024/03/14 01:17:29;;;;;;;142.88;44.75;;;;;;;;;;5016469;28;20070;-66
2024/03/14 01:20:23;;;;;;;120.85;41.20;;;;;;;;;;5017012;28;20144;-65
2024/03/14 01:23:17;;;;;;;92.18;28.98;;;;;;;;;;5016825;28;20052;-65
2024/03/14 01:26:04;;;;;;;112.57;39.00;;;;;;;;;;5017880;28;20057;-59
2024/03/14 01:28:58;;;;;;;132.85;39.67;;;;;;;;;;5014285;28;20514;-61
2024/03/14 01:31:46;;;;;;;139.95;37.85;;;;;;;;;;5014620;28;20049;-61
2024/03/14 01:34:39;;;;;;;104.45;37.78;;;;;;;;;;5013504;28;20101;-61
2024/03/14 01:37:26;;;;;;;113.90;39.03;;;;;;;;;;5010968;28;20415;-61
2024/03/14 01:40:20;;;;;;;98.13;35.00;;;;;;;;;;5013170;28;20077;-61
2024/03/14 01:43:09;;;;;;;84.55;32.35;;;;;;;;;;5015231;28;20053;-61
2024/03/14 01:46:03;;;;;;;127.65;39.08;;;;;;;;;;5013128;28;20108;-54
2024/03/14 01:48:50;;;;;;;98.82;33.95;;;;;;;;;;5011838;28;20050;-54
2024/03/14 01:51:44;;;;;;;93.03;33.63;;;;;;;;;;5014687;28;20049;-50
2024/03/14 01:54:38;;;;;;;97.22;33.88;;;;;;;;;;5012612;28;20510;-60
2024/03/14 01:57:25;;;;;;;88.45;32.42;;;;;;;;;;5014680;28;20522;-64
2024/03/14 02:00:24;;;;;;;103.90;33.33;;;;;;;;;;5013966;28;20155;-64
2024/03/14 02:03:13;;;;;;;107.32;35.33;;;;;;;;;;5012071;28;20061;-64
2024/03/14 02:06:12;;;;;;;81.90;31.90;;;;;;;;;;5013593;28;20264;-65
2024/03/14 02:09:00;;;;;;;95.65;31.80;;;;;;;;;;5010061;28;20057;-64
2024/03/14 02:11:53;;;;;;;89.93;29.73;;;;;;;;;;5016243;28;20107;-63
2024/03/14 02:14:41;;;;;;;77.80;28.42;;;;;;;;;;5020560;28;20058;-61
2024/03/14 02:17:41;;;;;;;108.80;31.25;;;;;;;;;;5016657;28;20053;-65
2024/03/14 02:20:28;;;;;;;75.65;27.02;;;;;;;;;;5017634;28;20175;-62
2024/03/14 02:23:22;;;;;;;65.75;24.10;;;;;;;;;;5016067;28;20073;-61
2024/03/14 02:26:10;;;;;;;59.83;23.85;;;;;;;;;;5015333;28;20057;-62
2024/03/14 02:29:03;;;;;;;77.50;25.63;;;;;;;;;;5009080;28;21353;-63
2024/03/14 02:31:53;;;;;;;65.70;24.13;;;;;;;;;;5013863;28;20053;-62
2024/03/14 02:34:47;;;;;;;60.88;23.85;;;;;;;;;;5011800;28;20116;-61
2024/03/14 02:37:34;;;;;;;57.90;23.35;;;;;;;;;;5013505;28;20053;-62
2024/03/14 02:40:31;;;;;;;65.10;23.52;;;;;;;;;;5013957;28;20128;-62
2024/03/14 02:43:18;;;;;;;55.58;21.55;;;;;;;;;;5012148;28;20159;-48
2024/03/14 02:46:12;;;;;;;64.97;23.00;;;;;;;;;;5011402;28;20057;-52
2024/03/14 02:49:06;;;;;;;75.10;25.98;;;;;;;;;;5011941;28;20060;-47
2024/03/14 02:52:00;;;;;;;85.25;25.77;;;;;;;;;;5009693;28;20503;-52
2024/03/14 02:54:56;;;;;;;96.20;28.77;;;;;;;;;;5010106;28;20057;-62
2024/03/14 02:57:48;;;;;;;94.15;27.90;;;;;;;;;;5010731;28;20115;-62
2024/03/14 03:00:42;;;;;;;101.32;28.42;;;;;;;;;;5010316;28;20066;-62
2024/03/14 03:03:29;;;;;;;95.78;26.17;;;;;;;;;;5007270;28;20060;-62
2024/03/14 03:06:26;;;;;;;82.80;26.75;;;;;;;;;;5014524;28;20053;-62
2024/03/14 03:09:10;;;;;;;96.35;27.65;;;;;;;;;;5011954;28;20167;-48
2024/03/14 03:12:05;;;;;;;72.25;22.55;;;;;;;;;;5015163;28;20049;-48
2024/03/14 03:14:52;;;;;;;58.13;21.13;;;;;;;;;;5012566;28;20068;-53
2024/03/14 03:17:53;;;;;;;89.97;24.00;;;;;;;;;;5016849;28;20052;-51
2024/03/14 03:20:40;;;;;;;57.47;18.45;;;;;;;;;;5014862;28;20148;-64
2024/03/14 03:23:34;;;;;;;72.95;19.60;;;;;;;;;;5013286;28;20056;-62
2024/03/14 03:26:28;;;;;;;63.65;19.58;;;;;;;;;;5014032;28;20061;-62
2024/03/14 03:29:22;;;;;;;40.95;16.02;;;;;;;;;;5015558;28;20038;-62
2024/03/14 03:32:09;;;;;;;44.67;16.48;;;;;;;;;;5010726;28;20072;-64
2024/03/14 03:35:03;;;;;;;44.05;16.42;;;;;;;;;;5009038;28;20068;-62
2024/03/14 03:37:57;;;;;;;50.15;16.30;;;;;;;;;;5007467;28;20511;-61
2024/03/14 03:40:51;;;;;;;38.83;14.57;;;;;;;;;;5010205;28;20053;-61
2024/03/14 03:43:45;;;;;;;37.35;14.05;;;;;;;;;;5011345;28;20103;-62
2024/03/14 03:46:45;;;;;;;33.13;13.52;;;;;;;;;;5011655;28;20469;-61
2024/03/14 03:49:32;;;;;;;31.67;15.02;;;;;;;;;;5008555;28;20066;-62
2024/03/14 03:52:26;;;;;;;41.47;15.85;;;;;;;;;;5007842;28;20100;-48
2024/03/14 03:55:16;;;;;;;38.10;15.18;;;;;;;;;;5013196;28;20049;-49
2024/03/14 03:58:10;;;;;;;32.05;14.82;;;;;;;;;;5014089;28;20139;-51
2024/03/14 04:01:10;;;;;;;35.72;14.43;;;;;;;;;;5010826;28;20067;-54
2024/03/14 04:04:01;;;;;;;34.28;13.40;;;;;;;;;;5008217;28;20061;-48
2024/03/14 04:06:55;;;;;;;43.08;15.80;;;;;;;;;;5010034;28;20507;-65
2024/03/14 04:09:51;;;;;;;38.22;13.20;;;;;;;;;;5010520;28;20609;-65
2024/03/14 04:12:36;;;;;;;37.78;13.35;;;;;;;;;;5010601;28;20503;-65
2024/03/14 04:15:30;;;;;;;37.47;12.73;;;;;;;;;;5010290;28;20692;-65
2024/03/14 04:18:24;;;;;;;29.98;11.80;;;;;;;;;;5014342;28;20049;-63
2024/03/14 04:21:17;;;;;;;22.85;9.90;;;;;;;;;;5010931;28;20155;-49
2024/03/14 04:24:06;;;;;;;19.27;8.55;;;;;;;;;;5013395;28;20052;-52
2024/03/14 04:26:58;;;;;;;18.92;8.43;;;;;;;;;;5014395;28;20495;-48
2024/03/14 04:29:47;;;;;;;22.42;8.35;;;;;;;;;;5012947;28;20537;-52
2024/03/14 04:32:39;;;;;;;19.17;8.25;;;;;;;;;;5015106;28;20045;-50
2024/03/14 04:35:26;;;;;;;22.63;8.38;;;;;;;;;;5008544;28;20065;-61
2024/03/14 04:38:23;;;;;;;14.77;6.97;;;;;;;;;;5013363;28;20057;-61
2024/03/14 04:41:14;;;;;;;19.70;7.30;;;;;;;;;;5011771;28;20519;-61
2024/03/14 04:44:03;;;;;;;23.98;8.32;;;;;;;;;;5012930;28;20127;-61
2024/03/14 04:46:54;;;;;;;16.10;7.28;;;;;;;;;;5013311;28;20573;-50
2024/03/14 04:49:42;;;;;;;19.70;7.85;;;;;;;;;;5014799;28;20167;-51
2024/03/14 04:52:29;;;;;;;13.00;6.38;;;;;;;;;;5012041;28;20053;-52
2024/03/14 04:55:23;;;;;;;15.52;6.55;;;;;;;;;;5007280;28;20103;-48
2024/03/14 04:58:13;;;;;;;15.15;7.50;;;;;;;;;;5009262;28;20046;-54
2024/03/14 05:01:04;;;;;;;16.30;7.07;;;;;;;;;;5007311;28;20050;-52
2024/03/14 05:03:52;;;;;;;19.35;7.65;;;;;;;;;;5013279;28;20053;-50
2024/03/14 05:06:46;;;;;;;14.45;8.18;;;;;;;;;;5014865;28;20120;-52
2024/03/14 05:09:33;;;;;;;21.38;8.77;;;;;;;;;;5015512;28;20653;-52
2024/03/14 05:12:27;;;;;;;20.60;8.60;;;;;;;;;;5018662;28;20918;-53
2024/03/14 05:15:21;;;;;;;20.75;9.05;;;;;;;;;;5017732;28;20462;-51
2024/03/14 05:18:21;;;;;;;24.38;8.82;;;;;;;;;;5020049;28;20176;-62
2024/03/14 05:21:10;;;;;;;20.23;8.88;;;;;;;;;;5016953;28;20055;-61
2024/03/14 05:24:02;;;;;;;29.08;10.65;;;;;;;;;;5019352;28;20062;-61
2024/03/14 05:26:49;;;;;;;24.65;10.35;;;;;;;;;;5013060;28;20682;-61
2024/03/14 05:29:43;;;;;;;25.20;9.80;;;;;;;;;;5017678;28;20046;-61
2024/03/14 05:32:32;;;;;;;29.90;10.20;;;;;;;;;;5010900;28;21564;-62
2024/03/14 05:35:24;;;;;;;43.10;11.95;;;;;;;;;;5011170;28;20100;-61
2024/03/14 05:38:12;;;;;;;29.92;10.20;;;;;;;;;;5012751;28;20058;-61
2024/03/14 05:41:05;;;;;;;31.60;11.55;;;;;;;;;;5010901;28;20049;-61
2024/03/14 05:43:52;;;;;;;37.25;11.85;;;;;;;;;;5014449;28;20107;-61
2024/03/14 05:46:46;;;;;;;37.00;11.82;;;;;;;;;;5010338;28;20058;-53
2024/03/14 05:49:33;;;;;;;26.60;11.15;;;;;;;;;;5007721;28;20108;-51
2024/03/14 05:52:32;;;;;;;36.22;10.88;;;;;;;;;;5009268;28;20532;-54
2024/03/14 05:55:17;;;;;;;27.38;11.75;;;;;;;;;;5009780;28;20319;-54
2024/03/14 05:58:13;;;;;;;28.02;11.00;;;;;;;;;;5011481;28;20049;-52
2024/03/14 06:01:07;;;;;;;34.83;12.05;;;;;;;;;;5010775;28;20065;-61
2024/03/14 06:03:54;;;;;;;39.90;12.70;;;;;;;;;;5013354;28;20058;-62
2024/03/14 06:06:48;;;;;;;28.67;13.35;;;;;;;;;;5001565;28;20054;-62
2024/03/14 06:09:42;;;;;;;57.05;15.45;;;;;;;;;;5012178;28;20506;-62
2024/03/14 06:12:37;;;;;;;46.25;15.02;;;;;;;;;;5018022;28;20126;-63
2024/03/14 06:15:22;;;;;;;34.90;13.05;;;;;;;;;;5018415;28;20057;-62
2024/03/14 06:18:23;;;;;;;50.70;14.27;;;;;;;;;;5019222;28;20053;-48
2024/03/14 06:21:11;;;;;;;47.35;15.35;;;;;;;;;;5019725;28;20053;-61
2024/03/14 06:24:05;;;;;;;37.28;13.07;;;;;;;;;;5015350;28;20491;-61
2024/03/14 06:26:51;;;;;;;40.40;14.48;;;;;;;;;;5014330;28;20056;-62
2024/03/14 06:29:46;;;;;;;39.72;14.00;;;;;;;;;;5014604;28;20621;-61
2024/03/14 06:32:33;;;;;;;49.00;15.52;;;;;;;;;;5014993;28;20057;-62
2024/03/14 06:35:26;;;;;;;40.28;14.48;;;;;;;;;;5012779;28;20049;-61
2024/03/14 06:38:14;;;;;;;39.80;13.98;;;;;;;;;;5013902;28;20080;-61
2024/03/14 06:41:07;;;;;;;54.45;15.32;;;;;;;;;;5016499;28;20046;-62
2024/03/14 06:43:54;;;;;;;49.17;14.50;;;;;;;;;;5016470;28;20057;-62
2024/03/14 06:46:48;;;;;;;48.70;15.75;;;;;;;;;;5013605;28;20104;-63
2024/03/14 06:49:37;;;;;;;47.50;14.13;;;;;;;;;;5015125;28;20107;-51
2024/03/14 06:52:29;;;;;;;45.67;15.75;;;;;;;;;;5014870;28;20061;-62
2024/03/14 06:55:16;;;;;;;61.13;17.17;;;;;;;;;;5013925;28;20053;-62
2024/03/14 06:58:11;;;;;;;118.93;22.30;;;;;;;;;;5013661;28;20130;-61
2024/03/14 07:01:04;;;;;;;54.15;19.13;;;;;;;;;;5013614;28;20049;-62
2024/03/14 07:03:51;;;;;;;62.33;17.77;;;;;;;;;;5015908;28;20112;-61
2024/03/14 07:06:46;;;;;;;60.78;16.70;;;;;;;;;;5015919;28;20053;-52
2024/03/14 07:09:32;;;;;;;65.05;18.98;;;;;;;;;;5018043;28;20058;-50
2024/03/14 07:12:26;;;;;;;87.28;19.98;;;;;;;;;;5017235;28;20104;-49
2024/03/14 07:15:14;;;;;;;121.28;22.67;;;;;;;;;;5016363;28;20041;-64
2024/03/14 07:18:08;;;;;;;127.18;24.67;;;;;;;;;;5018545;28;20128;-62
2024/03/14 07:21:02;;;;;;;103.07;20.65;;;;;;;;;;5018764;28;20045;-61
2024/03/14 07:23:56;;;;;;;117.63;23.23;;;;;;;;;;5015958;28;20057;-61
2024/03/14 07:26:44;;;;;;;95.53;20.85;;;;;;;;;;5014259;28;20067;-61
2024/03/14 07:29:37;;;;;;;57.55;18.35;;;;;;;;;;5014548;28;20060;-61
2024/03/14 07:32:24;;;;;;;31.45;14.23;;;;;;;;;;5014642;28;20145;-61
2024/03/14 07:35:18;;;;;;;44.67;16.23;;;;;;;;;;5015768;28;20483;-65
2024/03/14 07:38:12;;;;;;;37.38;12.40;;;;;;;;;;5015007;28;20053;-64
2024/03/14 07:40:59;;;;;;;49.58;15.52;;;;;;;;;;5016074;28;20050;-64
2024/03/14 07:43:53;;;;;;;38.30;14.82;;;;;;;;;;5013583;28;20062;-62
2024/03/14 07:46:58;;;;;;;28.73;12.27;;;;;;;;;;5015262;28;20061;-51
2024/03/14 07:49:51;;;;;;;38.55;14.38;;;;;;;;;;5015130;28;20061;-52
2024/03/14 07:52:41;;;;;;;33.75;12.98;;;;;;;;;;5014108;28;20053;-52
2024/03/14 07:55:37;;;;;;;29.92;12.13;;;;;;;;;;5016169;28;20107;-52
2024/03/14 07:58:24;;;;;;;24.67;10.25;;;;;;;;;;5014027;28;20053;-54
2024/03/14 08:01:18;;;;;;;39.70;12.80;;;;;;;;;;5013414;28;20050;-52
2024/03/14 08:04:06;;;;;;;30.98;11.32;;;;;;;;;;5013229;28;20080;-61
2024/03/14 08:06:59;;;;;;;35.45;11.80;;;;;;;;;;5017744;28;20054;-61
2024/03/14 08:09:56;;;;;;;33.05;11.88;;;;;;;;;;5017165;28;20115;-61
2024/03/14 08:12:40;;;;;;;27.23;10.88;;;;;;;;;;5018612;28;20049;-62
2024/03/14 08:15:37;;;;;;;27.38;10.32;;;;;;;;;;5017501;28;20522;-52
2024/03/14 08:18:31;;;;;;;19.88;9.82;;;;;;;;;;5018017;28;20112;-50
2024/03/14 08:21:29;;;;;;;22.92;9.77;;;;;;;;;;5018532;28;20049;-52
2024/03/14 08:24:12;;;;;;;19.58;9.38;;;;;;;;;;5013251;28;20519;-54
2024/03/14 08:27:06;;;;;;;22.65;9.48;;;;;;;;;;5013226;28;20057;-52
2024/03/14 08:29:53;;;;;;;18.73;9.68;;;;;;;;;;5015660;28;20049;-53
2024/03/14 08:32:49;;;;;;;21.40;10.38;;;;;;;;;;5011761;28;20065;-61
2024/03/14 08:35:37;;;;;;;24.27;11.55;;;;;;;;;;5016169;28;20065;-61
2024/03/14 08:38:29;;;;;;;55.45;14.68;;;;;;;;;;5013109;28;20419;-61
2024/03/14 08:41:15;;;;;;;34.95;13.18;;;;;;;;;;5016632;28;20103;-62
2024/03/14 08:44:11;;;;;;;45.20;15.10;;;;;;;;;;5016688;28;20639;-61
2024/03/14 08:46:56;;;;;;;49.95;15.60;;;;;;;;;;5017848;28;20057;-61
2024/03/14 08:49:50;;;;;;;56.45;16.27;;;;;;;;;;5004427;28;20046;-61
2024/03/14 08:52:44;;;;;;;55.60;15.50;;;;;;;;;;5018251;28;20049;-62
2024/03/14 08:55:39;;;;;;;34.05;12.10;;;;;;;;;;5018825;28;20074;-62
2024/03/14 08:58:25;;;;;;;32.08;12.63;;;;;;;;;;5018783;28;20049;-61
2024/03/14 09:01:20;;;;;;;26.23;11.30;;;;;;;;;;5015898;28;20163;-65
2024/03/14 09:04:06;;;;;;;31.30;12.57;;;;;;;;;;5020219;28;20060;-65
2024/03/14 09:07:00;;;;;;;25.98;10.85;;;;;;;;;;5019223;28;20049;-66
2024/03/14 09:09:48;;;;;;;18.05;9.57;;;;;;;;;;5016840;28;20477;-49
2024/03/14 09:12:42;;;;;;;23.48;9.18;;;;;;;;;;5020407;28;20049;-65
2024/03/14 09:15:29;;;;;;;18.05;8.63;;;;;;;;;;5019345;28;20525;-64
2024/03/14 09:18:37;;;;;;;11.75;7.45;;;;;;;;;;5017761;28;20064;-65
2024/03/14 09:21:29;;;;;;;15.38;7.57;;;;;;;;;;5020383;28;20054;-65
2024/03/14 09:24:23;;;;;;;14.55;6.95;;;;;;;;;;5017208;28;20119;-65
2024/03/14 09:27:11;;;;;;;19.58;8.15;;;;;;;;;;5016848;28;20057;-62
2024/03/14 09:30:08;;;;;;;14.48;7.28;;;;;;;;;;5016075;28;20474;-62
2024/03/14 09:32:53;;;;;;;13.63;7.15;;;;;;;;;;5014613;28;20057;-62
2024/03/14 09:35:46;;;;;;;12.57;7.25;;;;;;;;;;5015457;28;20126;-61
2024/03/14 09:38:33;;;;;;;10.98;6.95;;;;;;;;;;5017905;28;20045;-62
2024/03/14 09:41:34;;;;;;;20.08;7.57;;;;;;;;;;5016120;28;20054;-63
2024/03/14 09:44:23;;;;;;;10.20;6.50;;;;;;;;;;5014611;28;20496;-64
2024/03/14 09:47:22;;;;;;;19.45;7.47;;;;;;;;;;5014890;28;20081;-64
2024/03/14 09:50:16;;;;;;;11.30;5.72;;;;;;;;;;5015834;28;20045;-65
2024/03/14 09:53:04;;;;;;;8.05;5.20;;;;;;;;;;5011914;28;20046;-65
2024/03/14 09:55:52;;;;;;;8.02;5.15;;;;;;;;;;5015005;28;20096;-49
2024/03/14 09:58:45;;;;;;;7.78;5.07;;;;;;;;;;5016044;28;20519;-50
2024/03/14 10:01:32;;;;;;;8.48;5.70;;;;;;;;;;5014561;28;20046;-48
2024/03/14 10:04:28;;;;;;;7.35;4.70;;;;;;;;;;5014386;28;20053;-48
2024/03/14 10:07:14;;;;;;;11.00;5.45;;;;;;;;;;5016035;28;20450;-49
2024/03/14 10:10:07;;;;;;;7.63;5.00;;;;;;;;;;5017989;28;20079;-60
2024/03/14 10:12:57;;;;;;;6.72;4.35;;;;;;;;;;5017060;28;20061;-60
2024/03/14 10:15:49;;;;;;;12.43;5.75;;;;;;;;;;5015202;28;20111;-60
2024/03/14 10:18:42;;;;;;;12.90;5.05;;;;;;;;;;5016962;28;20045;-61
2024/03/14 10:21:36;;;;;;;7.97;5.05;;;;;;;;;;5015608;28;20569;-60
2024/03/14 10:24:29;;;;;;;9.95;5.40;;;;;;;;;;5014926;28;20099;-62
2024/03/14 10:27:23;;;;;;;6.70;4.35;;;;;;;;;;5014689;28;20577;-62
2024/03/14 10:30:33;;;;;;;8.07;5.03;;;;;;;;;;5014624;28;20053;-62
2024/03/14 10:33:27;;;;;;;8.90;4.82;;;;;;;;;;5016237;28;20042;-61
2024/03/14 10:36:21;;;;;;;6.63;4.53;;;;;;;;;;5013721;28;20064;-62
2024/03/14 10:39:14;;;;;;;4.35;3.40;;;;;;;;;;5010994;28;20062;-60
2024/03/14 10:42:09;;;;;;;4.55;3.20;;;;;;;;;;5014161;28;20056;-60
2024/03/14 10:44:59;;;;;;;5.10;3.40;;;;;;;;;;5012259;28;20046;-60
2024/03/14 10:47:51;;;;;;;4.20;2.92;;;;;;;;;;5014551;28;20061;-60
2024/03/14 10:50:38;;;;;;;6.43;3.13;;;;;;;;;;5013130;28;20524;-60
2024/03/14 10:53:34;;;;;;;2.67;2.25;;;;;;;;;;5016156;28;20049;-53
2024/03/14 10:56:24;;;;;;;2.63;2.08;;;;;;;;;;5015788;28;20518;-52
2024/03/14 10:59:16;;;;;;;3.42;1.98;;;;;;;;;;5015997;28;20057;-52
2024/03/14 11:02:04;;;;;;;2.08;1.88;;;;;;;;;;5010848;28;20443;-54
2024/03/14 11:04:58;;;;;;;4.18;1.95;;;;;;;;;;5011811;28;20061;-51
2024/03/14 11:07:53;;;;;;;1.98;1.67;;;;;;;;;;5012652;28;20069;-62
2024/03/14 11:10:47;;;;;;;2.63;1.70;;;;;;;;;;5014430;28;20053;-62
2024/03/14 11:13:36;;;;;;;3.35;1.58;;;;;;;;;;5015295;28;20145;-61
2024/03/14 11:16:29;;;;;;;1.50;1.40;;;;;;;;;;5015699;28;20054;-61
2024/03/14 11:19:23;;;;;;;2.95;2.00;;;;;;;;;;5017702;28;20684;-62
2024/03/14 11:22:18;;;;;;;2.13;1.60;;;;;;;;;;5019721;28;20061;-61
2024/03/14 11:25:06;;;;;;;1.77;1.48;;;;;;;;;;5015814;28;20054;-61
2024/03/14 11:28:01;;;;;;;1.52;1.42;;;;;;;;;;5014912;28;20065;-61
2024/03/14 11:30:56;;;;;;;4.28;1.98;;;;;;;;;;5015285;28;20057;-61
2024/03/14 11:33:52;;;;;;;1.85;1.70;;;;;;;;;;5013865;28;20041;-60
2024/03/14 11:36:48;;;;;;;2.25;1.88;;;;;;;;;;5013049;28;20379;-47
2024/03/14 11:39:46;;;;;;;2.30;1.73;;;;;;;;;;5011675;28;20061;-48
2024/03/14 11:42:27;;;;;;;3.15;2.25;;;;;;;;;;5013575;28;20435;-53
2024/03/14 11:45:21;;;;;;;5.40;2.35;;;;;;;;;;5014530;28;20046;-51
2024/03/14 11:48:10;;;;;;;5.05;3.58;;;;;;;;;;5011076;28;20494;-51
2024/03/14 11:51:05;;;;;;;4.70;3.03;;;;;;;;;;5016972;28;20050;-62
2024/03/14 11:54:05;;;;;;;12.07;4.55;;;;;;;;;;4999640;28;20499;-62
2024/03/14 11:57:07;;;;;;;6.70;4.30;;;;;;;;;;5012457;28;20061;-62
2024/03/14 11:59:56;;;;;;;6.63;3.90;;;;;;;;;;5010985;28;20041;-62
2024/03/14 12:02:49;;;;;;;9.02;4.15;;;;;;;;;;5012647;28;20503;-51
2024/03/14 12:05:38;;;;;;;7.43;4.75;;;;;;;;;;5014183;28;20052;-51
2024/03/14 12:08:29;;;;;;;7.68;4.03;;;;;;;;;;5013292;28;20058;-51
2024/03/14 12:11:18;;;;;;;10.85;4.65;;;;;;;;;;5013075;28;20049;-50
2024/03/14 12:14:14;;;;;;;10.88;5.40;;;;;;;;;;5013587;28;20539;-47
2024/03/14 12:17:01;;;;;;;9.15;5.18;;;;;;;;;;5013448;28;20096;-52
2024/03/14 12:20:05;;;;;;;11.05;5.40;;;;;;;;;;5017860;28;20686;-61
2024/03/14 12:22:51;;;;;;;6.18;4.15;;;;;;;;;;5017502;28;20228;-60
2024/03/14 12:25:46;;;;;;;7.88;5.20;;;;;;;;;;5018667;28;20066;-61
2024/03/14 12:28:33;;;;;;;11.77;5.68;;;;;;;;;;5019106;28;20068;-61
2024/03/14 12:31:29;;;;;;;5.38;4.07;;;;;;;;;;5019573;28;20463;-65
2024/03/14 12:34:14;;;;;;;7.22;4.50;;;;;;;;;;5020700;28;20052;-66
2024/03/14 12:37:12;;;;;;;5.78;3.70;;;;;;;;;;5020361;28;20056;-64
2024/03/14 12:39:59;;;;;;;5.38;3.42;;;;;;;;;;5016739;28;20111;-65
2024/03/14 12:42:53;;;;;;;6.20;3.25;;;;;;;;;;5016767;28;20049;-65
2024/03/14 12:45:46;;;;;;;5.97;3.35;;;;;;;;;;5014817;28;20058;-66
2024/03/14 12:48:42;;;;;;;5.75;3.40;;;;;;;;;;5016285;28;20053;-61
2024/03/14 12:51:32;;;;;;;6.40;3.30;;;;;;;;;;5017538;28;20462;-60
2024/03/14 12:54:32;;;;;;;5.55;2.55;;;;;;;;;;5016340;28;20050;-61
2024/03/14 12:57:20;;;;;;;3.30;2.38;;;;;;;;;;5017846;28;20131;-62
2024/03/14 13:00:17;;;;;;;4.85;2.70;;;;;;;;;;5017360;28;20058;-62
2024/03/14 13:03:17;;;;;;;3.03;2.35;;;;;;;;;;5014993;28;20089;-62
2024/03/14 13:06:09;;;;;;;5.80;2.33;;;;;;;;;;5014878;28;20050;-62
2024/03/14 13:09:13;;;;;;;3.78;1.95;;;;;;;;;;5018303;28;20049;-61
2024/03/14 13:12:19;;;;;;;2.10;1.80;;;;;;;;;;5016311;28;20085;-62
2024/03/14 13:15:14;;;;;;;2.15;1.70;;;;;;;;;;5012793;28;20072;-62
2024/03/14 13:18:24;;;;;;;3.60;2.00;;;;;;;;;;5012499;28;20050;-62
2024/03/14 13:21:17;;;;;;;;;;;;;;;;;;5013426;28;20594;-62
2024/03/14 13:24:03;;;;;;;5.57;1.90;;;;;;;;;;5012924;28;20059;-62
2024/03/14 13:26:58;;;;;;;2.40;1.70;;;;;;;;;;5014955;28;20049;-60
2024/03/14 13:29:44;;;;;;;5.05;1.80;;;;;;;;;;5016459;28;20502;-62
2024/03/14 13:32:38;;;;;;;2.10;1.70;;;;;;;;;;5015771;28;20050;-62
2024/03/14 13:35:26;;;;;;;2.88;1.92;;;;;;;;;;5016226;28;21729;-62
2024/03/14 13:38:20;;;;;;;3.83;1.83;;;;;;;;;;5014381;28;20058;-62
2024/03/14 13:41:13;;;;;;;2.85;1.90;;;;;;;;;;5018162;28;20064;-61
2024/03/14 13:44:01;;;;;;;1.70;1.60;;;;;;;;;;5015794;28;20872;-54
2024/03/14 13:46:56;;;;;;;4.68;2.40;;;;;;;;;;5017100;28;20061;-49
2024/03/14 13:49:45;;;;;;;3.40;1.90;;;;;;;;;;5017634;28;20041;-49
2024/03/14 13:52:38;;;;;;;3.15;2.58;;;;;;;;;;5020224;28;20038;-50
2024/03/14 13:55:31;;;;;;;3.92;2.42;;;;;;;;;;5016634;28;20057;-60
2024/03/14 13:58:25;;;;;;;4.70;2.17;;;;;;;;;;5019369;28;20140;-46
2024/03/14 14:01:19;;;;;;;3.72;2.28;;;;;;;;;;5015293;28;20063;-51
2024/03/14 14:04:13;;;;;;;3.33;2.20;;;;;;;;;;5014889;28;20054;-48
2024/03/14 14:07:02;;;;;;;4.10;2.47;;;;;;;;;;5017131;28;20408;-53
2024/03/14 14:09:55;;;;;;;2.85;2.28;;;;;;;;;;5015207;28;20436;-52
2024/03/14 14:12:41;;;;;;;4.47;2.25;;;;;;;;;;5015223;28;20061;-63
2024/03/14 14:15:35;;;;;;;3.28;2.20;;;;;;;;;;5011821;28;20136;-62
2024/03/14 14:18:29;;;;;;;4.95;2.55;;;;;;;;;;5012698;28;20124;-61
2024/03/14 14:21:23;;;;;;;4.70;2.72;;;;;;;;;;5014415;28;20423;-62
2024/03/14 14:24:10;;;;;;;4.80;2.90;;;;;;;;;;5014524;28;20093;-60
2024/03/14 14:27:03;;;;;;;4.38;2.60;;;;;;;;;;5013508;28;20513;-62
2024/03/14 14:29:50;;;;;;;4.05;3.10;;;;;;;;;;5010039;28;20133;-62
2024/03/14 14:32:45;;;;;;;4.38;2.55;;;;;;;;;;5012677;28;20049;-62
2024/03/14 14:35:31;;;;;;;6.18;3.42;;;;;;;;;;5009994;28;20130;-61
2024/03/14 14:38:25;;;;;;;6.20;3.10;;;;;;;;;;5012757;28;20061;-61
2024/03/14 14:41:12;;;;;;;4.95;3.15;;;;;;;;;;5015206;28;20057;-60
2024/03/14 14:44:07;;;;;;;7.13;3.08;;;;;;;;;;5013905;28;20056;-60
2024/03/14 14:47:06;;;;;;;4.68;3.10;;;;;;;;;;5015476;28;20136;-61
2024/03/14 14:50:00;;;;;;;4.82;3.28;;;;;;;;;;5011072;28;20050;-61
2024/03/14 14:52:48;;;;;;;4.90;2.97;;;;;;;;;;5016462;28;20367;-54
2024/03/14 14:55:43;;;;;;;6.20;3.13;;;;;;;;;;5017457;28;20096;-66
2024/03/14 14:58:30;;;;;;;7.45;3.50;;;;;;;;;;5015648;28;20069;-65
2024/03/14 15:01:23;;;;;;;6.47;2.88;;;;;;;;;;5014912;28;20108;-66
2024/03/14 15:04:11;;;;;;;6.45;2.45;;;;;;;;;;5013468;28;20053;-65
2024/03/14 15:07:05;;;;;;;2.95;2.25;;;;;;;;;;5012908;28;20092;-65
2024/03/14 15:09:52;;;;;;;4.18;2.80;;;;;;;;;;5010200;28;21611;-61
2024/03/14 15:12:45;;;;;;;4.00;2.50;;;;;;;;;;5013269;28;20645;-61
2024/03/14 15:15:34;;;;;;;4.72;2.10;;;;;;;;;;5009303;28;20451;-60
2024/03/14 15:18:40;;;;;;;2.33;2.13;;;;;;;;;;5012106;28;20140;-60
2024/03/14 15:21:34;;;;;;;1.92;1.67;;;;;;;;;;5011721;28;20099;-61
2024/03/14 15:24:29;;;;;;;2.85;1.70;;;;;;;;;;5012098;28;20466;-61
2024/03/14 15:27:17;;;;;;;4.07;2.05;;;;;;;;;;5011868;28;20080;-61
2024/03/14 15:30:09;;;;;;;2.70;2.03;;;;;;;;;;5014217;28;20448;-60
2024/03/14 15:33:00;;;;;;;4.40;2.10;;;;;;;;;;5014166;28;20062;-60
2024/03/14 15:35:57;;;;;;;2.85;1.63;;;;;;;;;;5010954;28;20057;-60
2024/03/14 15:38:45;;;;;;;1.67;1.58;;;;;;;;;;5016917;28;20315;-60
2024/03/14 15:41:39;;;;;;;2.60;1.95;;;;;;;;;;5009084;28;20045;-60
2024/03/14 15:44:31;;;;;;;3.00;1.77;;;;;;;;;;5012280;28;21499;-60
2024/03/14 15:47:23;;;;;;;2.92;1.92;;;;;;;;;;5012605;28;20630;-49
2024/03/14 15:50:10;;;;;;;2.03;1.77;;;;;;;;;;5014467;28;20057;-49
2024/03/14 15:53:06;;;;;;;5.30;2.08;;;;;;;;;;5015958;28;20103;-65
2024/03/14 15:55:51;;;;;;;2.30;1.98;;;;;;;;;;5016026;28;20499;-65
2024/03/14 15:58:46;;;;;;;2.75;2.00;;;;;;;;;;5015777;28;20060;-65
2024/03/14 16:01:36;;;;;;;3.20;2.10;;;;;;;;;;5014622;28;20518;-65
2024/03/14 16:04:29;;;;;;;2.78;1.95;;;;;;;;;;5010327;28;20049;-65
2024/03/14 16:07:16;;;;;;;2.92;1.92;;;;;;;;;;5013835;28;20054;-62
2024/03/14 16:10:10;;;;;;;3.65;2.78;;;;;;;;;;5012280;28;20111;-62
2024/03/14 16:12:58;;;;;;;3.40;2.28;;;;;;;;;;5014169;28;20049;-62
2024/03/14 16:15:52;;;;;;;3.38;2.60;;;;;;;;;;5011378;28;20174;-61
2024/03/14 16:18:48;;;;;;;3.17;2.47;;;;;;;;;;5010985;28;20076;-61
2024/03/14 16:21:40;;;;;;;4.05;2.90;;;;;;;;;;5013589;28;20077;-52
2024/03/14 16:24:27;;;;;;;4.07;3.00;;;;;;;;;;5009397;28;20140;-49
2024/03/14 16:27:20;;;;;;;4.13;2.88;;;;;;;;;;5014148;28;20049;-50
2024/03/14 16:30:07;;;;;;;4.90;3.20;;;;;;;;;;5015284;28;20057;-51
2024/03/14 16:33:02;;;;;;;3.90;2.92;;;;;;;;;;5013491;28;20449;-54
2024/03/14 16:35:50;;;;;;;5.55;4.00;;;;;;;;;;5014868;28;20049;-60
2024/03/14 16:38:45;;;;;;;4.63;3.65;;;;;;;;;;5014394;28;20049;-60
2024/03/14 16:41:33;;;;;;;5.22;3.75;;;;;;;;;;5014383;28;20049;-60
2024/03/14 16:44:28;;;;;;;6.53;3.50;;;;;;;;;;5015965;28;20058;-50
2024/03/14 16:47:13;;;;;;;4.85;3.15;;;;;;;;;;5018483;28;20061;-61
2024/03/14 16:50:11;;;;;;;7.28;4.18;;;;;;;;;;5015779;28;20502;-62
2024/03/14 16:52:58;;;;;;;5.05;3.88;;;;;;;;;;5015029;28;20580;-61